Time;durP1;ratioP1;P1;durP2;ratioP2;P2;SDS_P1;SDS_P2;PMS_P1;PMS_P2;Temp;Humidity;BMP_temperature;BMP_pressure;BME280_temperature;BME280_humidity;BME280_pressure;Samples;Min_cycle;Max_cycle;Signal;HPM_P1;HPM_P2
2023/12/13 00:00:10;;;;;;;11.38;2.75;;;;;;;7.31;100.00;99531.56;5073650;28;20103;-58
2023/12/13 00:02:35;;;;;;;12.23;2.97;;;;;;;7.25;100.00;99532.81;5084588;28;20029;-58
2023/12/13 00:05:00;;;;;;;12.70;2.70;;;;;;;7.21;100.00;99533.78;5089846;28;20134;-59
2023/12/13 00:07:25;;;;;;;13.18;2.83;;;;;;;7.20;100.00;99532.94;5069240;28;20056;-58
2023/12/13 00:09:51;;;;;;;9.02;2.55;;;;;;;7.18;100.00;99530.53;5084462;28;20027;-58
2023/12/13 00:12:17;;;;;;;10.90;2.67;;;;;;;7.17;100.00;99520.66;5079676;28;20065;-58
2023/12/13 00:14:42;;;;;;;11.60;2.50;;;;;;;7.17;100.00;99520.66;5077365;28;20028;-58
2023/12/13 00:17:10;;;;;;;11.43;2.40;;;;;;;7.16;100.00;99523.72;5075689;28;20028;-58
2023/12/13 00:19:36;;;;;;;10.77;2.60;;;;;;;7.14;100.00;99528.72;5070403;28;20111;-58
2023/12/13 00:22:01;;;;;;;8.80;2.47;;;;;;;7.11;100.00;99519.16;5070211;28;20108;-59
2023/12/13 00:24:26;;;;;;;11.55;2.80;;;;;;;7.12;100.00;99525.47;5088066;28;20036;-58
2023/12/13 00:26:52;;;;;;;10.98;2.67;;;;;;;7.14;100.00;99520.47;5072778;28;20035;-58
2023/12/13 00:29:17;;;;;;;10.25;2.50;;;;;;;7.11;100.00;99521.09;5077043;28;20503;-59
2023/12/13 00:31:42;;;;;;;12.05;2.40;;;;;;;7.07;100.00;99528.38;5081396;28;20459;-58
2023/12/13 00:34:08;;;;;;;13.23;2.60;;;;;;;7.03;100.00;99531.72;5069854;28;20028;-58
2023/12/13 00:36:33;;;;;;;17.02;3.50;;;;;;;6.99;100.00;99516.97;5086599;28;20118;-58
2023/12/13 00:38:58;;;;;;;14.93;2.95;;;;;;;6.96;100.00;99523.13;5082671;28;20032;-58
2023/12/13 00:41:24;;;;;;;10.38;2.42;;;;;;;6.95;100.00;99535.25;5069507;28;20507;-58
2023/12/13 00:43:49;;;;;;;11.15;2.50;;;;;;;6.90;100.00;99518.84;5086296;28;20039;-58
2023/12/13 00:46:22;;;;;;;10.20;2.30;;;;;;;6.86;100.00;99521.44;5071200;28;20028;-58
2023/12/13 00:48:48;;;;;;;13.30;2.47;;;;;;;6.89;100.00;99527.44;5081820;28;20048;-57
2023/12/13 00:51:18;;;;;;;12.50;2.80;;;;;;;6.92;100.00;99527.63;5090201;28;20038;-58
2023/12/13 00:53:43;;;;;;;9.10;2.60;;;;;;;6.93;100.00;99518.25;5086259;28;20143;-57
2023/12/13 00:56:09;;;;;;;9.75;2.50;;;;;;;6.91;100.00;99520.50;5087045;28;20110;-58
2023/12/13 00:58:34;;;;;;;12.50;2.75;;;;;;;6.91;100.00;99506.75;5087771;28;20032;-58
2023/12/13 01:01:00;;;;;;;11.25;2.38;;;;;;;6.90;100.00;99512.56;5084474;28;20199;-58
2023/12/13 01:03:26;;;;;;;12.00;2.40;;;;;;;6.91;100.00;99516.94;5083241;28;20020;-58
2023/12/13 01:05:51;;;;;;;11.68;2.75;;;;;;;6.92;100.00;99516.63;5071379;28;20503;-58
2023/12/13 01:08:17;;;;;;;9.48;2.50;;;;;;;6.93;100.00;99509.19;5077221;28;20012;-56
2023/12/13 01:10:42;;;;;;;6.50;2.17;;;;;;;6.95;100.00;99509.66;5075971;28;20028;-58
2023/12/13 01:13:08;;;;;;;7.60;2.20;;;;;;;6.96;100.00;99506.63;5079722;28;20037;-58
2023/12/13 01:15:33;;;;;;;13.73;2.47;;;;;;;6.97;100.00;99501.94;5084266;28;20028;-58
2023/12/13 01:17:58;;;;;;;11.70;2.40;;;;;;;6.95;100.00;99513.25;5079355;28;20032;-60
2023/12/13 01:20:24;;;;;;;9.43;2.40;;;;;;;7.01;100.00;99509.22;5079630;28;20039;-58
2023/12/13 01:22:49;;;;;;;8.65;2.17;;;;;;;7.02;100.00;99502.59;5077861;28;20035;-58
2023/12/13 01:25:14;;;;;;;9.27;2.50;;;;;;;7.02;100.00;99510.84;5072980;28;20115;-58
2023/12/13 01:27:40;;;;;;;9.98;2.30;;;;;;;7.05;100.00;99511.34;5081665;28;20040;-58
2023/12/13 01:30:08;;;;;;;7.38;2.80;;;;;;;7.04;100.00;99513.28;5073132;28;20051;-58
2023/12/13 01:32:33;;;;;;;8.73;2.30;;;;;;;7.07;100.00;99509.13;5069084;28;20035;-58
2023/12/13 01:34:59;;;;;;;10.80;2.88;;;;;;;7.06;100.00;99511.03;5072610;28;20029;-58
2023/12/13 01:37:24;;;;;;;11.60;2.55;;;;;;;7.11;100.00;99508.16;5088852;28;20013;-58
2023/12/13 01:39:49;;;;;;;11.00;2.40;;;;;;;7.09;100.00;99515.09;5093093;28;20031;-61
2023/12/13 01:42:15;;;;;;;8.68;2.28;;;;;;;7.10;100.00;99516.72;5076021;28;20062;-58
2023/12/13 01:44:40;;;;;;;11.23;2.70;;;;;;;7.13;100.00;99518.84;5085121;28;20032;-58
2023/12/13 01:47:05;;;;;;;11.05;2.50;;;;;;;7.11;100.00;99518.34;5074827;28;20460;-57
2023/12/13 01:49:31;;;;;;;11.60;2.97;;;;;;;7.11;100.00;99523.84;5072542;28;20072;-56
2023/12/13 01:51:57;;;;;;;10.80;3.42;;;;;;;7.11;100.00;99515.59;5079062;28;20031;-56
2023/12/13 01:54:23;;;;;;;11.32;2.80;;;;;;;7.11;100.00;99532.91;5072850;28;20029;-58
2023/12/13 01:56:51;;;;;;;11.23;3.03;;;;;;;7.12;100.00;99526.28;5074812;28;20392;-58
2023/12/13 01:59:17;;;;;;;13.02;2.85;;;;;;;7.12;100.00;99523.53;5086461;28;20475;-58
2023/12/13 02:01:42;;;;;;;14.02;3.30;;;;;;;7.11;100.00;99524.66;5086231;28;20029;-58
2023/12/13 02:04:08;;;;;;;15.10;3.20;;;;;;;7.08;100.00;99527.25;5079916;28;20383;-58
2023/12/13 02:06:33;;;;;;;10.68;2.85;;;;;;;7.08;100.00;99528.03;5081426;28;20055;-57
2023/12/13 02:08:58;;;;;;;13.18;3.10;;;;;;;7.07;100.00;99531.91;5084158;28;20066;-57
2023/12/13 02:11:24;;;;;;;16.27;3.20;;;;;;;7.06;100.00;99521.22;5107630;28;20122;-58
2023/12/13 02:13:50;;;;;;;14.60;3.30;;;;;;;7.06;100.00;99516.53;5086950;28;20040;-57
2023/12/13 02:16:15;;;;;;;14.68;3.08;;;;;;;7.06;100.00;99518.47;5073884;28;20059;-57
2023/12/13 02:18:41;;;;;;;10.43;2.92;;;;;;;7.06;100.00;99513.00;5072652;28;20485;-58
2023/12/13 02:21:06;;;;;;;15.85;3.15;;;;;;;7.05;100.00;99509.41;5071899;28;20024;-58
2023/12/13 02:23:32;;;;;;;14.23;3.15;;;;;;;7.06;100.00;99510.25;5071587;28;20530;-58
2023/12/13 02:26:02;;;;;;;12.65;3.13;;;;;;;7.06;100.00;99511.03;5071968;28;20033;-58
2023/12/13 02:28:29;;;;;;;15.00;3.40;;;;;;;7.07;100.00;99501.66;5083691;28;20495;-58
2023/12/13 02:30:59;;;;;;;14.68;3.58;;;;;;;7.05;100.00;99495.66;5088316;28;20079;-58
2023/12/13 02:33:25;;;;;;;19.35;3.47;;;;;;;7.08;100.00;99506.03;5087039;28;20066;-58
2023/12/13 02:35:52;;;;;;;18.35;3.90;;;;;;;7.08;100.00;99508.78;5091059;28;20039;-58
2023/12/13 02:38:17;;;;;;;17.45;4.40;;;;;;;7.08;100.00;99513.50;5091238;28;20450;-58
2023/12/13 02:40:43;;;;;;;11.20;3.55;;;;;;;7.09;100.00;99510.41;5090592;28;20031;-59
2023/12/13 02:43:08;;;;;;;16.27;3.47;;;;;;;7.11;100.00;99510.91;5085516;28;20502;-58
2023/12/13 02:45:33;;;;;;;14.35;3.50;;;;;;;7.13;100.00;99502.34;5081151;28;20024;-58
2023/12/13 02:47:59;;;;;;;17.17;4.35;;;;;;;7.11;100.00;99497.16;5059227;28;20362;-58
2023/12/13 02:50:25;;;;;;;17.33;3.90;;;;;;;7.10;100.00;99511.22;5079988;28;20032;-58
2023/12/13 02:52:50;;;;;;;17.90;4.43;;;;;;;7.07;100.00;99490.66;5057690;28;20471;-58
2023/12/13 02:55:16;;;;;;;15.63;3.83;;;;;;;7.08;100.00;99497.00;5089180;28;20097;-57
2023/12/13 02:57:41;;;;;;;14.77;4.00;;;;;;;7.07;100.00;99509.91;5077237;28;20371;-58
2023/12/13 03:00:07;;;;;;;16.70;3.65;;;;;;;7.06;100.00;99499.22;5077785;28;20452;-57
2023/12/13 03:02:33;;;;;;;15.85;3.30;;;;;;;7.11;100.00;99504.59;5091226;28;20028;-57
2023/12/13 03:05:00;;;;;;;16.15;3.65;;;;;;;7.11;100.00;99493.59;5091236;28;20098;-57
2023/12/13 03:07:25;;;;;;;17.60;4.22;;;;;;;7.13;100.00;99491.34;5091329;28;20039;-58
2023/12/13 03:09:51;;;;;;;15.70;4.18;;;;;;;7.13;100.00;99500.38;5073580;28;20021;-58
2023/12/13 03:12:16;;;;;;;15.60;3.90;;;;;;;7.14;100.00;99493.75;5072229;28;20029;-58
2023/12/13 03:14:41;;;;;;;17.25;3.83;;;;;;;7.15;100.00;99498.13;5073904;28;20040;-57
2023/12/13 03:17:07;;;;;;;16.80;4.18;;;;;;;7.15;100.00;99489.88;5081404;28;20029;-58
2023/12/13 03:19:32;;;;;;;16.38;4.00;;;;;;;7.14;100.00;99491.00;5087981;28;20339;-57
2023/12/13 03:21:57;;;;;;;16.48;3.85;;;;;;;7.13;100.00;99491.34;5075966;28;20029;-57
2023/12/13 03:24:23;;;;;;;17.67;3.85;;;;;;;7.13;100.00;99480.34;5075621;28;20032;-57
2023/12/13 03:26:48;;;;;;;16.58;4.28;;;;;;;7.13;100.00;99491.34;5070929;28;20036;-57
2023/12/13 03:29:13;;;;;;;21.63;5.75;;;;;;;7.13;100.00;99485.84;5071440;28;20525;-57
2023/12/13 03:31:39;;;;;;;16.30;4.45;;;;;;;7.11;100.00;99477.09;5079378;28;20032;-57
2023/12/13 03:34:04;;;;;;;18.67;4.20;;;;;;;7.10;100.00;99486.47;5078519;28;20479;-57
2023/12/13 03:36:29;;;;;;;17.92;4.05;;;;;;;7.09;100.00;99477.41;5078406;28;20047;-57
2023/12/13 03:38:54;;;;;;;20.83;4.40;;;;;;;7.07;100.00;99473.38;5076416;28;20735;-58
2023/12/13 03:41:20;;;;;;;17.88;4.45;;;;;;;7.08;100.00;99483.25;5090061;28;20052;-58
2023/12/13 03:43:45;;;;;;;22.15;4.40;;;;;;;7.07;100.00;99485.16;5081769;28;20024;-57
2023/12/13 03:46:11;;;;;;;19.83;4.60;;;;;;;7.07;100.00;99478.88;5078302;28;20086;-57
2023/12/13 03:48:36;;;;;;;14.65;4.03;;;;;;;7.07;100.00;99476.91;5087979;28;20020;-57
2023/12/13 03:51:02;;;;;;;20.45;4.50;;;;;;;7.08;100.00;99470.28;5091065;28;20034;-57
2023/12/13 03:53:28;;;;;;;19.42;4.45;;;;;;;7.10;100.00;99479.03;5090584;28;20100;-57
2023/12/13 03:55:53;;;;;;;14.73;3.90;;;;;;;7.13;100.00;99474.84;5072858;28;20028;-57
2023/12/13 03:58:19;;;;;;;21.10;4.05;;;;;;;7.11;100.00;99464.16;5075626;28;20112;-57
2023/12/13 04:00:44;;;;;;;21.25;4.25;;;;;;;7.13;100.00;99470.13;5077950;28;20057;-57
2023/12/13 04:03:09;;;;;;;19.52;4.80;;;;;;;7.13;100.00;99467.38;5080260;28;20021;-56
2023/12/13 04:05:34;;;;;;;18.70;4.20;;;;;;;7.11;100.00;99466.09;5080501;28;20024;-56
2023/12/13 04:08:00;;;;;;;18.55;4.38;;;;;;;7.11;100.00;99469.66;5089485;28;20035;-57
2023/12/13 04:10:26;;;;;;;22.08;5.05;;;;;;;7.10;100.00;99475.47;5089726;28;20020;-56
2023/12/13 04:12:51;;;;;;;20.58;4.80;;;;;;;7.07;100.00;99459.63;5079787;28;20476;-57
2023/12/13 04:15:17;;;;;;;19.50;4.57;;;;;;;7.05;100.00;99462.66;5070355;28;20039;-57
2023/12/13 04:17:42;;;;;;;21.65;5.43;;;;;;;7.03;100.00;99457.47;5070848;28;20121;-57
2023/12/13 04:20:08;;;;;;;19.58;4.45;;;;;;;7.03;100.00;99462.19;5083758;28;20056;-58
2023/12/13 04:22:33;;;;;;;18.15;4.70;;;;;;;7.00;100.00;99463.59;5076718;28;20028;-57
2023/12/13 04:24:58;;;;;;;19.90;4.68;;;;;;;7.00;100.00;99460.06;5075151;28;20028;-57
2023/12/13 04:27:24;;;;;;;20.73;4.80;;;;;;;7.02;100.00;99460.56;5087931;28;20530;-58
2023/12/13 04:29:49;;;;;;;20.30;4.60;;;;;;;7.02;100.00;99464.09;5092898;28;20041;-57
2023/12/13 04:32:14;;;;;;;19.45;4.90;;;;;;;7.04;100.00;99472.03;5070773;28;20030;-57
2023/12/13 04:34:40;;;;;;;15.23;4.28;;;;;;;7.05;100.00;99461.88;5075823;28;20028;-57
2023/12/13 04:37:05;;;;;;;20.60;4.80;;;;;;;7.07;100.00;99465.13;5089864;28;20066;-57
2023/12/13 04:39:30;;;;;;;18.13;4.57;;;;;;;7.06;100.00;99458.78;5078368;28;20127;-56
2023/12/13 04:41:55;;;;;;;20.58;4.30;;;;;;;7.08;100.00;99464.00;5069898;28;20500;-56
2023/12/13 04:44:21;;;;;;;17.95;4.35;;;;;;;7.07;100.00;99462.38;5072480;28;20470;-56
2023/12/13 04:46:46;;;;;;;21.00;4.38;;;;;;;7.09;100.00;99460.91;5069876;28;20036;-57
2023/12/13 04:49:11;;;;;;;20.52;4.38;;;;;;;7.10;100.00;99459.78;5069861;28;20055;-57
2023/12/13 04:51:37;;;;;;;21.85;4.60;;;;;;;7.10;100.00;99453.47;5085115;28;20032;-56
2023/12/13 04:54:02;;;;;;;20.95;4.00;;;;;;;7.09;100.00;99457.34;5075356;28;20032;-57
2023/12/13 04:56:27;;;;;;;18.77;4.35;;;;;;;7.09;100.00;99449.91;5076216;28;20399;-56
2023/12/13 04:58:53;;;;;;;20.13;4.43;;;;;;;7.09;100.00;99454.59;5109556;28;20066;-57
2023/12/13 05:01:19;;;;;;;20.33;4.25;;;;;;;7.08;100.00;99455.75;5083028;28;20033;-57
2023/12/13 05:03:44;;;;;;;19.30;4.13;;;;;;;7.08;100.00;99453.78;5080136;28;20024;-57
2023/12/13 05:06:09;;;;;;;22.98;4.55;;;;;;;7.08;100.00;99453.78;5093736;28;20078;-57
2023/12/13 05:08:34;;;;;;;18.48;4.25;;;;;;;7.10;100.00;99456.22;5092897;28;20024;-56
2023/12/13 05:11:00;;;;;;;18.38;4.15;;;;;;;7.10;100.00;99458.97;5093020;28;20460;-56
2023/12/13 05:13:26;;;;;;;24.17;5.10;;;;;;;7.07;100.00;99451.38;5085457;28;20032;-57
2023/12/13 05:15:51;;;;;;;22.42;4.65;;;;;;;7.07;100.00;99446.66;5083304;28;20060;-57
2023/12/13 05:18:17;;;;;;;21.30;4.38;;;;;;;7.07;100.00;99449.41;5075731;28;20114;-56
2023/12/13 05:20:42;;;;;;;18.35;4.40;;;;;;;7.08;100.00;99442.00;5085576;28;20439;-56
2023/12/13 05:23:07;;;;;;;18.58;4.22;;;;;;;7.08;100.00;99442.78;5092978;28;20032;-57
2023/12/13 05:25:33;;;;;;;21.48;4.82;;;;;;;7.08;100.00;99445.53;5075818;28;20055;-57
2023/12/13 05:27:58;;;;;;;21.30;4.55;;;;;;;7.08;100.00;99447.50;5075529;28;20032;-57
2023/12/13 05:30:24;;;;;;;26.58;4.90;;;;;;;7.07;100.00;99446.66;5077859;28;20120;-57
2023/12/13 05:32:52;;;;;;;23.92;5.13;;;;;;;7.10;100.00;99448.78;5076964;28;20533;-57
2023/12/13 05:35:17;;;;;;;25.50;4.75;;;;;;;7.10;100.00;99439.72;5093407;28;20036;-57
2023/12/13 05:37:42;;;;;;;19.67;5.05;;;;;;;7.10;100.00;99443.28;5086016;28;20035;-57
2023/12/13 05:40:08;;;;;;;19.63;4.45;;;;;;;7.12;100.00;99440.22;5075954;28;20036;-57
2023/12/13 05:42:34;;;;;;;20.63;5.03;;;;;;;7.15;100.00;99445.88;5078048;28;20052;-57
2023/12/13 05:44:59;;;;;;;19.13;4.65;;;;;;;7.17;100.00;99443.63;5087759;28;20157;-57
2023/12/13 05:47:25;;;;;;;20.73;4.60;;;;;;;7.20;100.00;99439.44;5081378;28;20070;-57
2023/12/13 05:49:50;;;;;;;20.40;4.90;;;;;;;7.21;100.00;99445.75;5086560;28;20205;-57
2023/12/13 05:52:15;;;;;;;23.35;4.55;;;;;;;7.22;100.00;99444.63;5091457;28;20101;-59
2023/12/13 05:54:41;;;;;;;22.83;4.30;;;;;;;7.22;100.00;99442.69;5092063;28;20089;-59
2023/12/13 05:57:06;;;;;;;21.92;4.75;;;;;;;7.23;100.00;99443.47;5086768;28;20051;-57
2023/12/13 05:59:31;;;;;;;18.85;4.55;;;;;;;7.24;100.00;99443.19;5072011;28;20494;-56
2023/12/13 06:01:56;;;;;;;20.30;4.43;;;;;;;7.25;100.00;99449.47;5071605;28;20029;-58
2023/12/13 06:04:22;;;;;;;22.98;4.90;;;;;;;7.25;100.00;99452.22;5050192;28;20060;-56
2023/12/13 06:06:48;;;;;;;21.38;4.63;;;;;;;7.26;100.00;99453.84;5067671;28;20028;-57
2023/12/13 06:09:14;;;;;;;21.15;4.68;;;;;;;7.25;100.00;99453.06;5069016;28;20066;-58
2023/12/13 06:11:39;;;;;;;21.30;4.90;;;;;;;7.27;100.00;99448.06;5083694;28;20036;-58
2023/12/13 06:14:05;;;;;;;17.77;4.20;;;;;;;7.28;100.00;99448.84;5080426;28;20533;-58
2023/12/13 06:16:30;;;;;;;21.80;4.97;;;;;;;7.27;100.00;99452.72;5070727;28;20377;-58
2023/12/13 06:18:55;;;;;;;22.25;4.57;;;;;;;7.28;100.00;99454.34;5070165;28;20028;-59
2023/12/13 06:21:21;;;;;;;20.40;5.07;;;;;;;7.26;100.00;99454.69;5077518;28;20047;-58
2023/12/13 06:23:46;;;;;;;21.73;5.50;;;;;;;7.24;100.00;99456.94;5075715;28;20028;-56
2023/12/13 06:26:12;;;;;;;23.63;5.30;;;;;;;7.24;100.00;99456.94;5076534;28;20101;-56
2023/12/13 06:28:37;;;;;;;24.10;5.40;;;;;;;7.23;100.00;99462.72;5083972;28;20498;-58
2023/12/13 06:31:03;;;;;;;21.58;5.90;;;;;;;7.23;100.00;99469.06;5081042;28;20470;-57
2023/12/13 06:33:29;;;;;;;23.73;5.47;;;;;;;7.22;100.00;99470.19;5085959;28;20040;-57
2023/12/13 06:35:54;;;;;;;22.80;5.35;;;;;;;7.21;100.00;99471.31;5084294;28;20487;-58
2023/12/13 06:38:20;;;;;;;22.90;6.07;;;;;;;7.23;100.00;99465.47;5075007;28;20641;-58
2023/12/13 06:40:45;;;;;;;21.83;5.35;;;;;;;7.24;100.00;99476.19;5090063;28;20372;-57
2023/12/13 06:43:11;;;;;;;28.08;5.68;;;;;;;7.23;100.00;99479.22;5087348;28;20047;-58
2023/12/13 06:45:36;;;;;;;24.63;5.60;;;;;;;7.19;100.00;99470.81;5088921;28;20380;-56
2023/12/13 06:48:01;;;;;;;19.92;5.22;;;;;;;7.22;100.00;99464.69;5075685;28;20115;-57
2023/12/13 06:50:27;;;;;;;25.48;5.50;;;;;;;7.23;100.00;99469.06;5072638;28;20040;-58
2023/12/13 06:52:54;;;;;;;21.75;5.15;;;;;;;7.23;100.00;99469.06;5069639;28;20492;-57
2023/12/13 06:55:19;;;;;;;20.65;5.28;;;;;;;7.22;100.00;99470.19;5076042;28;20032;-57
2023/12/13 06:57:45;;;;;;;23.98;5.13;;;;;;;7.24;100.00;99473.44;5077850;28;20046;-58
2023/12/13 07:00:11;;;;;;;20.05;5.18;;;;;;;7.24;100.00;99469.84;5079359;28;20055;-57
2023/12/13 07:02:36;;;;;;;20.73;5.55;;;;;;;7.23;100.00;99469.06;5078706;28;20044;-57
2023/12/13 07:05:02;;;;;;;20.20;5.05;;;;;;;7.25;100.00;99465.97;5072058;28;20032;-57
2023/12/13 07:07:27;;;;;;;21.88;5.18;;;;;;;7.22;100.00;99467.44;5069327;28;20032;-58
2023/12/13 07:09:53;;;;;;;22.20;6.22;;;;;;;7.22;100.00;99472.13;5071895;28;20024;-57
2023/12/13 07:12:20;;;;;;;21.40;5.60;;;;;;;7.23;100.00;99473.72;5069371;28;20036;-57
2023/12/13 07:14:45;;;;;;;24.20;5.75;;;;;;;7.22;100.00;99477.63;5068964;28;20043;-57
2023/12/13 07:17:11;;;;;;;25.05;5.97;;;;;;;7.24;100.00;99480.84;5080073;28;20041;-57
2023/12/13 07:19:36;;;;;;;22.60;5.57;;;;;;;7.20;100.00;99475.19;5076117;28;20028;-57
2023/12/13 07:22:01;;;;;;;23.15;5.63;;;;;;;7.23;100.00;99482.81;5084197;28;20483;-57
2023/12/13 07:24:27;;;;;;;23.42;5.93;;;;;;;7.23;100.00;99480.06;5074897;28;20056;-57
2023/12/13 07:26:52;;;;;;;25.08;6.20;;;;;;;7.21;100.00;99482.31;5085169;28;20430;-57
2023/12/13 07:29:17;;;;;;;22.55;6.43;;;;;;;7.21;100.00;99490.56;5084172;28;20027;-58
2023/12/13 07:31:43;;;;;;;24.83;5.80;;;;;;;7.17;100.00;99482.13;5075874;28;20390;-58
2023/12/13 07:34:08;;;;;;;22.77;5.53;;;;;;;7.20;100.00;99496.38;5074366;28;20028;-58
2023/12/13 07:36:34;;;;;;;22.70;6.05;;;;;;;7.17;100.00;99484.88;5076023;28;20067;-58
2023/12/13 07:39:00;;;;;;;24.23;6.28;;;;;;;7.17;100.00;99487.63;5075800;28;20029;-58
2023/12/13 07:41:25;;;;;;;21.65;6.03;;;;;;;7.15;100.00;99484.38;5078321;28;20458;-58
2023/12/13 07:43:52;;;;;;;21.15;5.95;;;;;;;7.17;100.00;99492.34;5066685;28;20495;-58
2023/12/13 07:46:17;;;;;;;21.75;5.85;;;;;;;7.17;100.00;99492.34;5074558;28;20050;-57
2023/12/13 07:48:43;;;;;;;21.50;5.97;;;;;;;7.14;100.00;99490.22;5079326;28;20446;-57
2023/12/13 07:51:10;;;;;;;22.38;6.18;;;;;;;7.12;100.00;99484.22;5070731;28;20563;-56
2023/12/13 07:53:35;;;;;;;21.27;6.03;;;;;;;7.13;100.00;99481.13;5073948;28;20040;-57
2023/12/13 07:56:01;;;;;;;21.25;5.97;;;;;;;7.16;100.00;99488.75;5082367;28;20036;-52
2023/12/13 07:58:26;;;;;;;24.17;7.10;;;;;;;7.15;100.00;99489.88;5083449;28;20027;-54
2023/12/13 08:00:51;;;;;;;21.40;5.95;;;;;;;7.17;100.00;99490.38;5088791;28;20353;-55
2023/12/13 08:03:16;;;;;;;22.42;6.57;;;;;;;7.16;100.00;99493.47;5088836;28;20060;-55
2023/12/13 08:05:42;;;;;;;23.02;6.80;;;;;;;7.16;100.00;99487.97;5088493;28;20043;-55
2023/12/13 08:08:07;;;;;;;22.08;6.05;;;;;;;7.15;100.00;99489.88;5088384;28;20437;-55
2023/12/13 08:10:32;;;;;;;22.60;6.22;;;;;;;7.19;100.00;99487.31;5088868;28;20078;-55
2023/12/13 08:12:58;;;;;;;23.13;6.47;;;;;;;7.17;100.00;99498.63;5088583;28;20031;-55
2023/12/13 08:15:23;;;;;;;22.30;6.15;;;;;;;7.18;100.00;99505.75;5075432;28;20031;-54
2023/12/13 08:17:49;;;;;;;20.38;6.25;;;;;;;7.17;100.00;99498.63;5079751;28;20118;-54
2023/12/13 08:20:14;;;;;;;23.75;6.40;;;;;;;7.17;100.00;99497.84;5062609;28;20491;-55
2023/12/13 08:22:39;;;;;;;22.83;7.03;;;;;;;7.19;100.00;99495.56;5070302;28;20546;-55
2023/12/13 08:25:05;;;;;;;21.52;6.70;;;;;;;7.19;100.00;99495.56;5083264;28;20496;-54
2023/12/13 08:27:30;;;;;;;21.77;6.60;;;;;;;7.20;100.00;99508.19;5084722;28;20487;-54
2023/12/13 08:29:56;;;;;;;21.15;6.03;;;;;;;7.21;100.00;99506.28;5077564;28;20051;-55
2023/12/13 08:32:22;;;;;;;23.25;6.88;;;;;;;7.22;100.00;99502.41;5076413;28;20119;-54
2023/12/13 08:34:48;;;;;;;24.17;7.35;;;;;;;7.23;100.00;99513.06;5071992;28;20111;-55
2023/12/13 08:37:14;;;;;;;21.38;6.65;;;;;;;7.26;100.00;99511.63;5078535;28;20112;-55
2023/12/13 08:39:40;;;;;;;22.55;7.13;;;;;;;7.29;100.00;99516.50;5074075;28;20428;-55
2023/12/13 08:42:06;;;;;;;22.67;6.53;;;;;;;7.30;100.00;99518.13;5082836;28;20057;-54
2023/12/13 08:44:31;;;;;;;22.27;6.90;;;;;;;7.33;100.00;99514.72;5071956;28;20146;-56
2023/12/13 08:46:56;;;;;;;25.10;7.65;;;;;;;7.33;100.00;99511.97;5078554;28;20115;-54
2023/12/13 08:49:22;;;;;;;23.13;6.80;;;;;;;7.35;100.00;99517.97;5084179;28;20450;-55
2023/12/13 08:51:47;;;;;;;24.40;7.05;;;;;;;7.37;100.00;99517.69;5072217;28;20670;-54
2023/12/13 08:54:12;;;;;;;22.17;7.05;;;;;;;7.38;100.00;99525.59;5076181;28;20032;-55
2023/12/13 08:56:38;;;;;;;24.75;7.57;;;;;;;7.40;100.00;99523.34;5086521;28;20034;-55
2023/12/13 08:59:03;;;;;;;26.50;9.10;;;;;;;7.44;100.00;99524.31;5083081;28;20395;-57
2023/12/13 09:01:28;;;;;;;24.60;7.60;;;;;;;7.45;100.00;99522.41;5077098;28;20027;-57
2023/12/13 09:03:54;;;;;;;23.48;7.43;;;;;;;7.49;100.00;99526.94;5080695;28;20364;-55
2023/12/13 09:06:19;;;;;;;22.25;6.82;;;;;;;7.51;100.00;99529.38;5091921;28;20064;-55
2023/12/13 09:08:44;;;;;;;23.98;7.10;;;;;;;7.51;100.00;99525.81;5092105;28;20085;-55
2023/12/13 09:11:11;;;;;;;23.35;7.18;;;;;;;7.51;100.00;99523.88;5091483;28;20494;-56
2023/12/13 09:13:36;;;;;;;24.55;7.40;;;;;;;7.55;100.00;99535.03;5091997;28;20449;-56
2023/12/13 09:16:02;;;;;;;23.55;7.10;;;;;;;7.55;100.00;99530.38;5091726;28;20437;-56
2023/12/13 09:18:27;;;;;;;22.85;6.72;;;;;;;7.59;100.00;99542.34;5107292;28;20475;-56
2023/12/13 09:20:52;;;;;;;24.67;7.85;;;;;;;7.63;100.00;99540.59;5088252;28;20050;-55
2023/12/13 09:23:23;;;;;;;23.50;7.75;;;;;;;7.67;100.00;99535.25;5083265;28;20093;-55
2023/12/13 09:25:49;;;;;;;23.00;7.28;;;;;;;7.69;100.00;99541.28;5092770;28;20055;-56
2023/12/13 09:28:15;;;;;;;21.50;7.10;;;;;;;7.72;100.00;99542.56;5085125;28;20109;-56
2023/12/13 09:30:40;;;;;;;25.63;7.20;;;;;;;7.75;100.00;99541.91;5085318;28;20495;-56
2023/12/13 09:33:05;;;;;;;22.60;7.28;;;;;;;7.78;100.00;99538.53;5081462;28;20048;-55
2023/12/13 09:35:32;;;;;;;26.08;7.53;;;;;;;7.83;100.00;99549.41;5069151;28;20116;-56
2023/12/13 09:37:57;;;;;;;27.05;7.95;;;;;;;7.86;100.00;99540.47;5071914;28;20028;-56
2023/12/13 09:40:23;;;;;;;24.40;7.95;;;;;;;7.92;100.00;99549.41;5079581;28;20517;-56
2023/12/13 09:42:49;;;;;;;23.33;8.05;;;;;;;8.04;100.00;99554.28;5093405;28;20063;-56
2023/12/13 09:45:21;;;;;;;24.42;7.85;;;;;;;8.14;100.00;99550.44;5092503;28;20117;-56
2023/12/13 09:47:51;;;;;;;27.83;8.50;;;;;;;8.20;100.00;99551.91;5091820;28;20505;-57
2023/12/13 09:50:17;;;;;;;26.85;8.02;;;;;;;8.29;100.00;99555.47;5071989;28;20043;-56
2023/12/13 09:52:43;;;;;;;25.30;8.48;;;;;;;8.35;100.00;99558.88;5070372;28;20066;-55
2023/12/13 09:55:10;;;;;;;24.52;8.40;;;;;;;8.37;100.00;99559.38;5071506;28;20226;-55
2023/12/13 09:57:35;;;;;;;21.92;7.38;;;;;;;8.39;100.00;99555.16;5070735;28;20067;-55
2023/12/13 10:00:01;;;;;;;23.10;7.30;;;;;;;8.42;100.00;99570.22;5070639;28;20083;-56
2023/12/13 10:02:26;;;;;;;23.45;7.43;;;;;;;8.45;100.00;99577.88;5071186;28;20028;-56
2023/12/13 10:04:52;;;;;;;21.98;7.70;;;;;;;8.47;100.00;99570.13;5070956;28;20032;-56
2023/12/13 10:07:18;;;;;;;23.13;7.10;;;;;;;8.47;100.00;99575.63;5070650;28;20609;-55
2023/12/13 10:09:44;;;;;;;22.10;7.32;;;;;;;8.49;100.00;99572.53;5071093;28;20032;-57
2023/12/13 10:12:12;;;;;;;23.45;6.95;;;;;;;8.49;100.00;99578.88;5070635;28;20036;-56
2023/12/13 10:14:37;;;;;;;22.85;6.80;;;;;;;8.50;100.00;99572.22;5070891;28;20484;-55
2023/12/13 10:17:03;;;;;;;21.25;6.65;;;;;;;8.48;100.00;99582.78;5070288;28;20036;-56
2023/12/13 10:19:29;;;;;;;22.95;6.53;;;;;;;8.51;100.00;99582.09;5069865;28;20041;-56
2023/12/13 10:21:54;;;;;;;22.48;6.63;;;;;;;8.56;100.00;99583.91;5085531;28;20041;-56
2023/12/13 10:24:24;;;;;;;22.38;6.90;;;;;;;8.53;100.00;99582.59;5077772;28;20085;-56
2023/12/13 10:26:50;;;;;;;21.15;6.63;;;;;;;8.52;100.00;99594.75;5089314;28;20502;-55
2023/12/13 10:29:18;;;;;;;24.02;6.97;;;;;;;8.53;100.00;99590.88;5083874;28;20052;-56
2023/12/13 10:31:47;;;;;;;22.33;7.00;;;;;;;8.55;100.00;99591.38;5098156;28;20107;-55
2023/12/13 10:34:12;;;;;;;21.33;6.60;;;;;;;8.57;100.00;99585.53;5079427;28;20055;-56
2023/12/13 10:36:38;;;;;;;21.10;6.53;;;;;;;8.64;100.00;99591.38;5063875;28;20398;-57
2023/12/13 10:39:05;;;;;;;20.83;6.68;;;;;;;8.61;100.00;99585.69;5084058;28;20032;-57
2023/12/13 10:41:32;;;;;;;21.08;6.28;;;;;;;8.61;100.00;99578.25;5053188;28;20497;-56
2023/12/13 10:43:58;;;;;;;23.30;6.13;;;;;;;8.65;100.00;99583.91;5076836;28;20522;-55
2023/12/13 10:46:31;;;;;;;19.55;6.00;;;;;;;8.65;100.00;99579.19;5079603;28;20059;-56
2023/12/13 10:48:58;;;;;;;20.58;5.80;;;;;;;8.68;100.00;99588.78;5104630;28;20028;-57
2023/12/13 10:51:25;;;;;;;22.92;5.38;;;;;;;8.71;100.00;99588.94;5081183;28;20039;-55
2023/12/13 10:53:51;;;;;;;20.33;6.40;;;;;;;8.77;100.00;99586.84;5069457;28;20028;-56
2023/12/13 10:56:18;;;;;;;20.67;6.32;;;;;;;8.87;100.00;99580.16;5078893;28;20589;-57
2023/12/13 10:58:44;;;;;;;19.42;6.28;;;;;;;8.94;100.00;99588.75;5065720;28;20040;-54
2023/12/13 11:01:11;;;;;;;17.67;5.50;;;;;;;9.04;100.00;99585.66;5065488;28;20032;-57
2023/12/13 11:03:58;;;;;;;21.38;5.90;;;;;;;9.13;100.00;99582.91;5078226;28;20064;-55
2023/12/13 11:06:26;;;;;;;18.95;5.80;;;;;;;9.10;100.00;99575.28;5074149;28;20112;-56
2023/12/13 11:08:51;;;;;;;20.30;6.22;;;;;;;9.13;100.00;99588.41;5080739;28;20039;-54
2023/12/13 11:11:18;;;;;;;19.58;5.68;;;;;;;9.14;100.00;99601.09;5085711;28;20468;-57
2023/12/13 11:13:48;;;;;;;19.45;5.63;;;;;;;9.12;100.00;99600.59;5080358;28;20031;-57
2023/12/13 11:16:18;;;;;;;21.60;6.05;;;;;;;9.14;100.00;99600.25;5069782;28;20033;-55
2023/12/13 11:18:45;;;;;;;18.80;5.72;;;;;;;9.18;100.00;99595.72;5093872;28;20110;-55